Time;durP1;ratioP1;P1;durP2;ratioP2;P2;SDS_P1;SDS_P2;PMS_P1;PMS_P2;Temp;Humidity;BMP_temperature;BMP_pressure;BME280_temperature;BME280_humidity;BME280_pressure;Samples;Min_cycle;Max_cycle;Signal;HPM_P1;HPM_P2
2021/12/30 00:00:46;;;;;;;;;0.00;0.00;;;;;15.95;74.06;101157.72;5071343;28;45000;-63
2021/12/30 00:03:12;;;;;;;;;0.67;0.67;;;;;15.95;74.31;101160.44;5070720;28;44977;-61
2021/12/30 00:05:38;;;;;;;;;0.67;0.67;;;;;15.95;74.58;101164.91;5077997;28;45031;-62
2021/12/30 00:08:05;;;;;;;;;0.00;0.00;;;;;15.94;73.96;101168.53;5090891;27;46021;-62
2021/12/30 00:10:30;;;;;;;;;0.00;0.00;;;;;15.93;74.58;101169.41;5096012;28;45035;-62
2021/12/30 00:12:57;;;;;;;;;2.00;0.00;;;;;15.92;74.51;101173.91;5094318;28;45032;-63
2021/12/30 00:15:23;;;;;;;;;0.33;0.33;;;;;15.82;73.98;101150.41;5076199;28;46524;-64
2021/12/30 00:17:49;;;;;;;;;1.00;1.00;;;;;15.90;73.99;101170.25;5079249;28;45930;-62
2021/12/30 00:20:15;;;;;;;;;0.00;0.00;;;;;15.55;73.93;101111.47;5073524;28;44957;-60
2021/12/30 00:22:42;;;;;;;;;0.00;0.00;;;;;15.84;74.25;101156.72;5073134;28;45238;-62
2021/12/30 00:25:10;;;;;;;;;0.00;0.00;;;;;15.56;74.00;101107.88;5088225;28;45575;-62
2021/12/30 00:27:35;;;;;;;;;0.00;0.00;;;;;16.00;73.77;101173.94;5087943;28;45641;-61
2021/12/30 00:30:02;;;;;;;;;0.67;0.00;;;;;16.00;74.15;101176.66;5091962;28;45011;-62
2021/12/30 00:32:27;;;;;;;;;0.33;0.00;;;;;15.99;73.87;101177.56;5076775;28;45198;-63
2021/12/30 00:34:52;;;;;;;;;0.67;0.00;;;;;15.90;74.07;101148.69;5076898;28;45202;-61
2021/12/30 00:37:18;;;;;;;;;0.67;0.67;;;;;16.00;73.69;101172.19;5095676;28;46039;-62
2021/12/30 00:39:43;;;;;;;;;2.00;0.00;;;;;15.90;73.81;101159.47;5095384;28;45708;-62
2021/12/30 00:42:09;;;;;;;;;0.00;0.00;;;;;15.93;74.25;101177.47;5096058;28;45140;-62
2021/12/30 00:44:34;;;;;;;;;0.00;0.00;;;;;15.97;73.82;101179.31;5080321;28;44929;-63
2021/12/30 00:47:00;;;;;;;;;0.67;0.67;;;;;15.81;73.87;101144.13;5074944;28;45167;-62
2021/12/30 00:49:26;;;;;;;;;0.33;0.33;;;;;15.61;74.13;101114.22;5083609;28;45166;-61
2021/12/30 00:51:52;;;;;;;;;0.00;0.00;;;;;16.00;74.20;101185.66;5080020;28;44953;-62
2021/12/30 00:54:18;;;;;;;;;0.00;0.00;;;;;16.00;74.27;101188.34;5093369;28;44891;-61
2021/12/30 00:56:44;;;;;;;;;0.00;0.00;;;;;15.87;73.87;101167.50;5085752;27;46083;-63
2021/12/30 00:59:09;;;;;;;;;0.00;0.00;;;;;16.03;74.26;101193.75;5099073;27;45169;-61
2021/12/30 01:01:35;;;;;;;;;0.00;0.00;;;;;15.98;73.99;101192.81;5103620;27;44858;-63
2021/12/30 01:04:00;;;;;;;;;0.00;0.00;;;;;15.99;74.10;101196.41;5095284;27;44949;-62
2021/12/30 01:06:25;;;;;;;;;0.33;0.33;;;;;15.85;73.99;101169.28;5093774;27;45285;-62
2021/12/30 01:08:51;;;;;;;;;0.00;0.00;;;;;15.98;74.16;101208.97;5092713;27;45341;-61
2021/12/30 01:11:17;;;;;;;;;1.00;1.00;;;;;15.97;74.13;101204.50;5095916;27;45137;-64
2021/12/30 01:13:45;;;;;;;;;1.00;1.00;;;;;15.97;74.14;101199.09;5095407;27;45195;-62
2021/12/30 01:16:17;;;;;;;;;0.00;0.00;;;;;15.95;74.58;101214.31;5105253;27;45610;-64
2021/12/30 01:21:22;;;;;;;;;0.33;0.33;;;;;15.95;74.32;101235.88;5094017;27;44966;-63
2021/12/30 01:23:47;;;;;;;;;1.33;0.00;;;;;15.91;74.64;101231.34;5094490;27;45065;-63
2021/12/30 01:26:13;;;;;;;;;0.00;0.00;;;;;15.97;74.17;101236.81;5095983;27;45546;-61
2021/12/30 01:28:40;;;;;;;;;0.67;0.67;;;;;15.96;74.69;101242.19;5112034;27;44936;-61
2021/12/30 01:31:06;;;;;;;;;1.67;1.33;;;;;15.98;74.61;101232.34;5113263;27;45103;-62
2021/12/30 01:33:31;;;;;;;;;1.33;0.00;;;;;15.99;74.31;101242.25;5114042;27;45019;-62
2021/12/30 01:35:56;;;;;;;;;3.67;0.00;;;;;16.00;75.12;101247.66;5112388;27;45623;-61
2021/12/30 01:38:22;;;;;;;;;0.00;0.00;;;;;16.00;74.97;101255.72;5113519;27;45080;-62
2021/12/30 01:40:50;;;;;;;;;1.00;1.00;;;;;15.99;75.33;101248.53;5103463;27;45241;-62
2021/12/30 01:43:16;;;;;;;;;1.00;1.00;;;;;15.98;74.99;101257.47;5098618;27;44961;-62
2021/12/30 01:45:43;;;;;;;;;0.00;0.00;;;;;15.99;75.43;101255.72;5113711;27;46017;-63
2021/12/30 01:48:10;;;;;;;;;0.33;0.33;;;;;15.84;75.41;101245.66;5112932;27;45108;-62
2021/12/30 01:50:37;;;;;;;;;0.00;0.00;;;;;15.96;75.73;101264.66;5115079;27;44920;-62
2021/12/30 01:53:03;;;;;;;;;0.00;0.00;;;;;15.96;75.50;101261.94;5115217;27;45019;-63
2021/12/30 01:55:32;;;;;;;;;0.67;0.67;;;;;15.93;75.64;101258.31;5111107;27;45336;-62
2021/12/30 01:58:00;;;;;;;;;0.00;0.00;;;;;15.85;76.17;101250.13;5096416;27;45227;-62
2021/12/30 02:00:26;;;;;;;;;0.00;0.00;;;;;15.89;76.11;101270.84;5104567;27;45141;-63
2021/12/30 02:02:52;;;;;;;;;0.00;0.00;;;;;15.90;75.87;101264.56;5114906;27;44914;-61
2021/12/30 02:05:17;;;;;;;;;0.00;0.00;;;;;15.91;75.80;101273.56;5114305;27;45693;-62
2021/12/30 02:07:44;;;;;;;;;0.67;0.67;;;;;15.79;76.04;101242.88;5114317;27;45098;-64
2021/12/30 02:10:12;;;;;;;;;0.00;0.00;;;;;15.78;76.24;101238.38;5111900;27;45272;-62
2021/12/30 02:12:39;;;;;;;;;0.00;0.00;;;;;15.88;76.04;101266.34;5113253;27;45483;-63
2021/12/30 02:15:08;;;;;;;;;1.33;1.33;;;;;15.79;76.58;101260.84;5095640;27;45235;-62
2021/12/30 02:17:33;;;;;;;;;1.00;1.00;;;;;15.84;76.37;101273.50;5110026;27;45197;-63
2021/12/30 02:20:01;;;;;;;;;3.00;0.67;;;;;15.83;76.76;101274.34;5094485;27;44917;-61
2021/12/30 02:22:26;;;;;;;;;0.00;0.00;;;;;15.83;76.12;101284.25;5101427;27;44947;-63
2021/12/30 02:24:52;;;;;;;;;2.00;0.67;;;;;15.82;76.48;101279.72;5114002;27;45242;-62
2021/12/30 02:27:18;;;;;;;;;0.00;0.00;;;;;15.41;76.47;101215.38;5113098;27;45008;-61
2021/12/30 02:29:44;;;;;;;;;0.33;0.33;;;;;15.81;76.41;101288.72;5111501;27;45019;-62
2021/12/30 02:32:10;;;;;;;;;0.33;0.33;;;;;15.81;76.60;101292.31;5112052;27;45059;-61
2021/12/30 02:34:38;;;;;;;;;1.00;0.67;;;;;15.81;76.42;101291.41;5104942;27;45729;-62
2021/12/30 02:37:04;;;;;;;;;0.67;0.67;;;;;15.78;76.33;101288.66;5112828;27;45003;-61
2021/12/30 02:39:30;;;;;;;;;0.00;0.00;;;;;15.79;75.97;101287.78;5108423;27;45165;-62
2021/12/30 02:41:55;;;;;;;;;0.00;0.00;;;;;15.79;75.74;101291.38;5093153;27;44866;-61
2021/12/30 02:44:21;;;;;;;;;0.00;0.00;;;;;15.68;75.96;101275.94;5094825;27;45764;-62
2021/12/30 02:46:51;;;;;;;;;1.00;0.00;;;;;15.82;76.21;101295.88;5096749;27;45455;-63
2021/12/30 02:49:16;;;;;;;;;0.00;0.00;;;;;15.83;75.67;101306.69;5110724;27;44960;-61
2021/12/30 02:51:41;;;;;;;;;0.00;0.00;;;;;15.84;76.09;101316.59;5113235;27;44990;-61
2021/12/30 02:54:07;;;;;;;;;0.00;0.00;;;;;15.87;75.52;101314.81;5113307;27;45880;-62
2021/12/30 02:56:34;;;;;;;;;0.00;0.00;;;;;15.78;75.66;101305.72;5101875;27;45155;-62
2021/12/30 02:58:59;;;;;;;;;0.67;0.00;;;;;15.81;75.70;101307.56;5072935;28;45064;-62
2021/12/30 03:01:27;;;;;;;;;0.00;0.00;;;;;15.90;75.63;101318.47;5090045;28;45265;-60
2021/12/30 03:03:57;;;;;;;;;0.00;0.00;;;;;15.89;75.27;101321.13;5092894;28;45207;-63
2021/12/30 03:06:23;;;;;;;;;1.00;0.00;;;;;15.68;75.53;101282.22;5074385;28;45202;-61
2021/12/30 03:08:50;;;;;;;;;0.00;0.00;;;;;15.89;75.08;101316.66;5081776;28;45347;-61
2021/12/30 03:11:19;;;;;;;;;0.00;0.00;;;;;15.90;75.66;101320.25;5087720;28;45177;-62
2021/12/30 03:13:44;;;;;;;;;0.00;0.00;;;;;15.75;75.25;101286.78;5082851;28;45362;-61
2021/12/30 03:16:35;;;;;;;;;0.00;0.00;;;;;15.91;74.97;101312.19;5086432;28;45269;-62
2021/12/30 03:19:01;;;;;;;;;0.00;0.00;;;;;15.87;75.12;101307.63;5074474;28;45266;-62
2021/12/30 03:21:27;;;;;;;;;0.00;0.00;;;;;15.50;74.88;101245.16;5088944;28;44953;-63
2021/12/30 03:23:54;;;;;;;;;0.00;0.00;;;;;15.89;74.69;101308.59;5081253;28;45801;-61
2021/12/30 03:26:22;;;;;;;;;0.00;0.00;;;;;15.92;74.96;101314.03;5085267;28;45048;-62
2021/12/30 03:28:47;;;;;;;;;0.33;0.33;;;;;15.77;74.80;101293.16;5073351;28;45097;-63
2021/12/30 03:31:16;;;;;;;;;0.00;0.00;;;;;15.95;74.52;101322.13;5072611;28;45270;-62
2021/12/30 03:33:42;;;;;;;;;0.00;0.00;;;;;15.84;74.87;101296.84;5071691;28;45697;-64
2021/12/30 03:36:08;;;;;;;;;0.00;0.00;;;;;16.00;74.65;101323.13;5072718;28;45051;-62
2021/12/30 03:38:53;;;;;;;;;0.33;0.00;;;;;16.02;74.31;101324.03;5086250;28;45119;-62
2021/12/30 03:41:21;;;;;;;;;0.00;0.00;;;;;16.00;74.39;101320.41;5087422;28;45153;-62
2021/12/30 03:43:47;;;;;;;;;0.00;0.00;;;;;16.00;74.14;101325.81;5083703;27;45399;-63
2021/12/30 03:46:12;;;;;;;;;0.00;0.00;;;;;16.01;74.11;101315.91;5080561;28;45135;-61
2021/12/30 03:48:42;;;;;;;;;0.00;0.00;;;;;15.96;74.32;101313.16;5091276;28;45298;-64
2021/12/30 03:51:20;;;;;;;;;0.00;0.00;;;;;15.61;73.93;101256.97;5091330;28;44938;-62
2021/12/30 03:53:49;;;;;;;;;1.67;0.00;;;;;15.93;73.56;101298.75;5091507;28;45780;-61
2021/12/30 03:56:16;;;;;;;;;0.00;0.00;;;;;15.97;74.06;101311.34;5089672;27;45088;-63
2021/12/30 03:58:43;;;;;;;;;0.00;0.00;;;;;15.96;74.17;101315.84;5073276;28;44922;-63
2021/12/30 04:01:11;;;;;;;;;0.00;0.00;;;;;15.93;74.01;101312.22;5084243;28;45016;-62
2021/12/30 04:03:37;;;;;;;;;0.00;0.00;;;;;15.92;73.58;101314.03;5092880;28;45649;-61
2021/12/30 04:06:03;;;;;;;;;0.00;0.00;;;;;15.87;73.88;101304.03;5090088;28;45244;-63
2021/12/30 04:08:28;;;;;;;;;0.00;0.00;;;;;15.93;74.13;101310.41;5085817;28;45362;-61
2021/12/30 04:10:55;;;;;;;;;0.00;0.00;;;;;15.94;74.41;101308.66;5089652;28;45526;-62
2021/12/30 04:13:21;;;;;;;;;0.67;0.67;;;;;15.89;73.91;101303.19;5083708;28;46061;-61
2021/12/30 04:15:46;;;;;;;;;0.67;0.00;;;;;15.89;73.80;101300.50;5087520;28;45460;-62
2021/12/30 04:18:11;;;;;;;;;0.00;0.00;;;;;15.94;73.90;101309.53;5092281;28;44955;-62
2021/12/30 04:20:37;;;;;;;;;0.00;0.00;;;;;15.83;73.49;101292.31;5075638;28;44912;-61
2021/12/30 04:23:02;;;;;;;;;0.00;0.00;;;;;15.82;73.45;101285.13;5080333;28;45172;-62
2021/12/30 04:25:28;;;;;;;;;0.00;0.00;;;;;15.96;73.32;101302.38;5087345;28;44967;-61
2021/12/30 04:27:53;;;;;;;;;1.00;0.00;;;;;16.00;73.09;101320.41;5080940;28;45233;-64
2021/12/30 04:30:18;;;;;;;;;0.00;0.00;;;;;15.65;72.97;101239.97;5070446;28;44997;-62
2021/12/30 04:32:44;;;;;;;;;2.33;2.00;;;;;15.97;73.39;101290.72;5069553;28;46074;-63
2021/12/30 04:35:11;;;;;;;;;0.67;0.00;;;;;16.06;72.84;101300.72;5072188;28;45171;-62
2021/12/30 04:37:36;;;;;;;;;0.00;0.00;;;;;16.09;73.18;101305.25;5081280;28;45044;-61
2021/12/30 04:40:04;;;;;;;;;0.00;0.00;;;;;16.12;72.88;101297.16;5082756;28;45498;-61
2021/12/30 04:42:30;;;;;;;;;0.67;0.00;;;;;16.14;72.73;101307.09;5071220;28;46122;-62
2021/12/30 04:44:55;;;;;;;;;0.00;0.00;;;;;16.06;72.25;101294.44;5081445;28;45233;-62
2021/12/30 04:47:21;;;;;;;;;0.00;0.00;;;;;16.03;72.78;101295.28;5086526;28;45370;-63
2021/12/30 04:49:46;;;;;;;;;0.00;0.00;;;;;16.16;72.34;101309.81;5091754;28;44965;-61
2021/12/30 04:52:12;;;;;;;;;2.00;0.67;;;;;16.16;72.27;101315.22;5089352;28;45294;-62
2021/12/30 04:54:37;;;;;;;;;0.67;0.67;;;;;16.14;72.34;101315.19;5090631;27;45203;-61
2021/12/30 04:57:03;;;;;;;;;0.67;0.67;;;;;16.16;72.60;101321.50;5094003;27;45327;-61
2021/12/30 04:59:29;;;;;;;;;3.67;0.67;;;;;16.10;72.29;101313.34;5095580;28;45335;-62
2021/12/30 05:01:54;;;;;;;;;2.00;1.00;;;;;16.13;72.47;101323.25;5095026;28;45085;-63
2021/12/30 05:04:20;;;;;;;;;0.67;0.67;;;;;16.11;72.10;101333.13;5076558;28;44925;-60
2021/12/30 05:06:45;;;;;;;;;1.67;0.00;;;;;16.08;72.43;101333.06;5074940;28;45147;-63
2021/12/30 05:09:10;;;;;;;;;1.33;1.33;;;;;16.03;72.06;101339.28;5091946;28;44980;-61
2021/12/30 05:11:40;;;;;;;;;2.00;2.00;;;;;16.01;72.29;101343.78;5085116;28;45523;-62
2021/12/30 05:14:06;;;;;;;;;2.67;1.33;;;;;15.52;72.16;101272.09;5093215;28;45179;-61
2021/12/30 05:16:31;;;;;;;;;2.67;0.67;;;;;15.96;72.31;101353.59;5087814;28;45242;-61
2021/12/30 05:18:57;;;;;;;;;3.33;1.00;;;;;15.95;72.36;101357.16;5091942;28;45262;-61
2021/12/30 05:21:23;;;;;;;;;0.33;0.33;;;;;15.94;72.54;101357.16;5091689;28;45294;-61
2021/12/30 05:23:48;;;;;;;;;7.33;6.00;;;;;15.93;72.48;101350.84;5093511;28;44986;-61
2021/12/30 05:26:16;;;;;;;;;0.67;0.67;;;;;15.91;72.52;101349.94;5093299;28;45176;-62
2021/12/30 05:28:41;;;;;;;;;1.00;1.00;;;;;15.92;72.23;101342.72;5091860;28;45244;-62
2021/12/30 05:31:07;;;;;;;;;1.00;0.00;;;;;15.91;72.73;101344.53;5085809;28;46069;-61
2021/12/30 05:33:32;;;;;;;;;1.00;1.00;;;;;15.88;73.16;101354.38;5071888;28;45060;-61
2021/12/30 05:35:57;;;;;;;;;2.00;0.00;;;;;15.75;72.99;101347.84;5074900;28;44914;-63
2021/12/30 05:38:23;;;;;;;;;2.00;0.00;;;;;15.79;73.06;101353.34;5086179;28;45134;-61
2021/12/30 05:40:48;;;;;;;;;1.00;1.00;;;;;15.77;72.80;101362.28;5075540;28;45153;-63
2021/12/30 05:43:13;;;;;;;;;0.67;0.00;;;;;15.63;72.68;101338.72;5073889;28;45192;-62
2021/12/30 05:45:39;;;;;;;;;4.00;1.00;;;;;15.72;72.93;101370.25;5088184;28;45248;-61
2021/12/30 05:48:04;;;;;;;;;1.00;0.00;;;;;15.68;73.13;101383.69;5089042;28;44976;-60
2021/12/30 05:50:33;;;;;;;;;0.00;0.00;;;;;15.62;73.40;101395.25;5080723;28;45621;-62
2021/12/30 05:52:59;;;;;;;;;2.00;1.00;;;;;15.60;73.33;101394.31;5074168;28;44971;-60
2021/12/30 05:55:25;;;;;;;;;1.33;0.00;;;;;15.43;73.58;101367.13;5074513;28;45002;-62
2021/12/30 05:57:52;;;;;;;;;0.00;0.00;;;;;15.54;73.94;101392.44;5104098;27;45129;-61
2021/12/30 06:00:19;;;;;;;;;3.33;1.00;;;;;15.52;73.68;101394.19;5104740;27;47077;-61
2021/12/30 06:02:45;;;;;;;;;0.00;0.00;;;;;15.52;73.68;101406.75;5111247;27;45204;-60
2021/12/30 06:05:11;;;;;;;;;1.67;1.33;;;;;15.42;73.80;101398.50;5113233;27;44927;-61
2021/12/30 06:07:37;;;;;;;;;1.00;1.00;;;;;15.47;74.17;101401.28;5100854;27;45032;-61
2021/12/30 06:10:04;;;;;;;;;3.00;1.00;;;;;15.45;74.05;101405.75;5095407;27;45254;-61
2021/12/30 06:12:29;;;;;;;;;0.33;0.00;;;;;15.42;73.80;101405.69;5093479;27;45187;-62
2021/12/30 06:14:55;;;;;;;;;1.33;1.33;;;;;15.36;73.86;101410.97;5108578;27;45254;-61
2021/12/30 06:17:21;;;;;;;;;1.00;1.00;;;;;15.36;73.77;101408.28;5106332;27;45174;-62
2021/12/30 06:19:46;;;;;;;;;3.00;2.00;;;;;15.00;74.14;101359.22;5093317;27;45379;-62
2021/12/30 06:22:12;;;;;;;;;8.00;4.00;;;;;15.28;74.25;101416.22;5095214;27;45141;-62
2021/12/30 06:24:38;;;;;;;;;4.00;2.67;;;;;15.19;74.11;101400.81;5113678;27;45259;-61
2021/12/30 06:27:04;;;;;;;;;1.00;1.00;;;;;15.21;74.12;101407.16;5114402;27;45066;-61
2021/12/30 06:29:30;;;;;;;;;2.33;1.33;;;;;15.04;73.82;101385.28;5111199;27;45653;-63
2021/12/30 06:31:55;;;;;;;;;3.00;2.00;;;;;15.18;74.04;101415.16;5106390;27;44954;-63
2021/12/30 06:34:21;;;;;;;;;1.67;1.00;;;;;15.18;74.19;101412.47;5106477;27;45064;-62
2021/12/30 06:36:46;;;;;;;;;3.00;1.00;;;;;15.16;74.38;101416.00;5093471;27;45158;-62
2021/12/30 06:39:11;;;;;;;;;1.67;1.67;;;;;15.15;74.36;101417.78;5108476;27;45583;-63
2021/12/30 06:41:37;;;;;;;;;3.67;1.00;;;;;15.11;73.88;101426.66;5110065;27;45426;-63
2021/12/30 06:44:03;;;;;;;;;3.67;1.67;;;;;15.06;74.40;101421.22;5111072;27;44947;-63
2021/12/30 06:46:28;;;;;;;;;3.00;1.00;;;;;15.04;74.57;101425.66;5109587;27;44902;-62
2021/12/30 06:48:54;;;;;;;;;3.00;2.00;;;;;14.92;74.15;101409.28;5113094;27;45612;-61
2021/12/30 06:51:22;;;;;;;;;1.00;1.00;;;;;15.02;74.20;101423.81;5106764;27;45093;-63
2021/12/30 06:53:47;;;;;;;;;1.67;1.67;;;;;14.92;73.93;101407.50;5111022;27;45020;-62
2021/12/30 06:56:14;;;;;;;;;2.00;2.00;;;;;14.91;74.62;101416.47;5098220;27;45147;-63
2021/12/30 06:58:39;;;;;;;;;5.67;3.33;;;;;14.97;74.65;101436.28;5112185;27;45662;-62
2021/12/30 07:01:04;;;;;;;;;2.00;2.00;;;;;14.86;74.56;101423.50;5112280;27;45194;-64
2021/12/30 07:03:30;;;;;;;;;3.00;1.00;;;;;14.87;74.04;101429.81;5104121;27;45221;-64
2021/12/30 07:05:57;;;;;;;;;1.00;1.00;;;;;14.88;74.20;101434.31;5093760;27;45162;-63
2021/12/30 07:08:23;;;;;;;;;3.00;3.00;;;;;14.90;74.39;101443.34;5107384;27;45009;-62
2021/12/30 07:10:49;;;;;;;;;3.00;1.33;;;;;14.89;73.94;101454.97;5111259;27;45398;-62
2021/12/30 07:13:15;;;;;;;;;5.33;3.00;;;;;14.88;74.07;101451.38;5101654;27;45184;-62
2021/12/30 07:15:40;;;;;;;;;5.33;4.33;;;;;14.79;74.09;101444.91;5112393;27;45169;-63
2021/12/30 07:18:05;;;;;;;;;4.00;4.00;;;;;14.53;73.50;101408.47;5111768;27;49436;-64
2021/12/30 07:20:31;;;;;;;;;5.00;2.00;;;;;14.70;73.94;101438.47;5099580;27;45259;-61
2021/12/30 07:22:56;;;;;;;;;6.33;3.67;;;;;14.70;73.62;101442.91;5096554;27;45028;-61
2021/12/30 07:25:22;;;;;;;;;6.00;5.00;;;;;14.76;73.86;101452.91;5101815;27;45086;-62
2021/12/30 07:27:52;;;;;;;;;5.00;2.00;;;;;14.83;73.59;101465.59;5106618;27;45649;-63
2021/12/30 07:30:19;;;;;;;;;6.67;3.33;;;;;14.83;73.68;101462.91;5112109;27;45297;-61
2021/12/30 07:32:45;;;;;;;;;3.33;2.33;;;;;14.85;73.24;101467.44;5107331;27;45179;-63
2021/12/30 07:35:11;;;;;;;;;6.33;3.67;;;;;14.84;73.54;101473.69;5110201;27;45205;-62
2021/12/30 07:37:36;;;;;;;;;9.67;4.00;;;;;14.82;73.29;101470.06;5111544;27;45737;-60
2021/12/30 07:40:03;;;;;;;;;6.33;3.33;;;;;14.80;72.92;101466.47;5109007;27;45905;-60
2021/12/30 07:42:28;;;;;;;;;4.67;2.00;;;;;14.92;73.30;101484.63;5092545;27;45018;-63
2021/12/30 07:44:54;;;;;;;;;4.00;3.00;;;;;14.95;72.79;101475.69;5092752;27;44983;-64
2021/12/30 07:47:19;;;;;;;;;2.33;1.67;;;;;14.91;72.53;101467.59;5109846;27;44994;-64
2021/12/30 07:49:46;;;;;;;;;5.33;2.00;;;;;14.80;72.78;101457.44;5102740;27;45166;-62
2021/12/30 07:52:11;;;;;;;;;4.33;3.00;;;;;14.97;72.49;101491.00;5108058;27;45580;-62
2021/12/30 07:54:36;;;;;;;;;3.67;3.67;;;;;14.86;72.87;101466.56;5111394;27;45845;-63
2021/12/30 07:57:02;;;;;;;;;6.33;3.67;;;;;15.04;71.99;101502.81;5100676;27;45036;-63
2021/12/30 07:59:27;;;;;;;;;8.00;2.67;;;;;15.04;72.19;101495.63;5106978;27;44917;-62
2021/12/30 08:01:52;;;;;;;;;3.33;3.33;;;;;15.03;72.04;101499.22;5102740;27;45140;-63
2021/12/30 08:04:18;;;;;;;;;8.33;2.67;;;;;15.07;72.20;101508.25;5111109;27;45184;-64
2021/12/30 08:06:43;;;;;;;;;8.00;3.67;;;;;15.07;71.73;101517.22;5112368;27;45219;-62
2021/12/30 08:09:10;;;;;;;;;2.00;2.00;;;;;14.61;71.96;101450.81;5100797;27;45176;-62
2021/12/30 08:11:35;;;;;;;;;3.00;3.00;;;;;15.03;72.02;101520.75;5112567;27;45303;-61
2021/12/30 08:14:01;;;;;;;;;3.00;1.33;;;;;15.05;71.57;101527.06;5111748;27;45177;-63
2021/12/30 08:16:28;;;;;;;;;8.00;7.00;;;;;15.08;72.07;101537.00;5111790;27;45978;-63
2021/12/30 08:18:53;;;;;;;;;6.33;2.33;;;;;15.08;71.26;101542.38;5108815;27;45237;-62
2021/12/30 08:21:21;;;;;;;;;7.67;5.00;;;;;15.08;71.54;101542.38;5102367;27;44778;-63
2021/12/30 08:23:48;;;;;;;;;4.67;4.00;;;;;15.11;71.49;101545.09;5098017;27;45081;-61
2021/12/30 08:26:14;;;;;;;;;3.50;3.00;;;;;15.08;71.29;101545.06;5103759;27;45521;-64
2021/12/30 08:28:39;;;;;;;;;6.00;4.67;;;;;15.04;71.30;101540.47;5111865;27;44976;-63
2021/12/30 08:31:04;;;;;;;;;14.00;5.00;;;;;15.09;71.29;101545.06;5100304;27;45244;-61
2021/12/30 08:33:30;;;;;;;;;8.00;6.00;;;;;15.13;71.22;101553.19;5100654;27;45100;-63
2021/12/30 08:35:55;;;;;;;;;5.33;3.00;;;;;15.16;71.35;101562.25;5103875;27;45517;-61
2021/12/30 08:38:21;;;;;;;;;6.67;3.00;;;;;15.20;71.12;101568.63;5114608;27;45118;-61
2021/12/30 08:40:47;;;;;;;;;7.33;3.00;;;;;15.17;71.13;101558.69;5098989;27;45237;-61
2021/12/30 08:43:14;;;;;;;;;1.00;1.00;;;;;15.19;70.69;101578.47;5099178;27;45202;-64
2021/12/30 08:45:41;;;;;;;;;29.25;20.75;;;;;15.18;71.01;101575.72;5095385;27;45566;-67
2021/12/30 08:48:07;;;;;;;;;19.67;17.67;;;;;15.12;71.23;101576.53;5077118;27;45610;-62
2021/12/30 08:50:33;;;;;;;;;16.33;10.33;;;;;15.10;71.01;101563.03;5092294;27;45383;-64
2021/12/30 08:52:58;;;;;;;;;10.00;7.67;;;;;15.17;70.73;101582.91;5101619;27;45408;-63
2021/12/30 08:55:24;;;;;;;;;9.00;7.67;;;;;15.15;71.23;101576.59;5090298;27;46206;-65
2021/12/30 08:57:49;;;;;;;;;8.00;4.00;;;;;15.01;71.56;101559.25;5068388;28;45457;-63
2021/12/30 09:00:27;;;;;;;;;15.00;10.33;;;;;15.16;71.12;101564.03;5091583;28;45158;-61
2021/12/30 09:02:58;;;;;;;;;7.00;5.67;;;;;15.20;70.92;101564.13;5091865;28;45048;-61
2021/12/30 09:05:25;;;;;;;;;8.00;7.00;;;;;14.81;70.87;101496.94;5089776;28;45069;-64
2021/12/30 09:07:51;;;;;;;;;23.50;17.50;;;;;15.20;70.78;101563.25;5067580;28;45652;-64
2021/12/30 09:10:18;;;;;;;;;15.33;13.00;;;;;15.23;71.19;101579.47;5064510;28;45470;-64
2021/12/30 09:12:44;;;;;;;;;10.00;4.67;;;;;15.25;70.65;101578.59;5060791;28;45503;-63
2021/12/30 09:15:13;;;;;;;;;7.00;5.00;;;;;15.17;70.79;101565.88;5057385;28;46388;-65
2021/12/30 09:17:40;;;;;;;;;6.33;4.00;;;;;15.29;71.01;101580.50;5075647;28;45493;-62
2021/12/30 09:20:07;;;;;;;;;8.33;6.67;;;;;15.24;70.50;101575.88;5061082;28;45617;-66
2021/12/30 09:22:33;;;;;;;;;9.33;6.33;;;;;15.30;70.68;101584.97;5077070;28;45447;-64
2021/12/30 09:24:58;;;;;;;;;4.33;4.33;;;;;14.94;70.72;101523.22;5076063;28;45332;-67
2021/12/30 09:27:23;;;;;;;;;6.00;3.33;;;;;15.30;70.68;101595.75;5074362;28;45418;-64
2021/12/30 09:29:49;;;;;;;;;7.00;5.00;;;;;15.33;70.65;101597.63;5068853;28;45465;-62
2021/12/30 09:32:14;;;;;;;;;7.00;5.00;;;;;15.24;70.80;101576.78;5043361;28;45882;-61
2021/12/30 09:34:39;;;;;;;;;8.00;4.67;;;;;15.37;70.45;101601.28;5075476;28;46102;-63
2021/12/30 09:37:09;;;;;;;;;9.00;4.00;;;;;15.38;70.42;101604.00;5074974;28;45566;-61
2021/12/30 09:39:36;;;;;;;;;10.00;5.00;;;;;15.41;70.72;101609.44;5060780;28;45499;-65
2021/12/30 09:42:02;;;;;;;;;6.00;3.33;;;;;15.43;70.12;101605.00;5067054;28;45474;-66
2021/12/30 09:44:27;;;;;;;;;7.67;3.67;;;;;15.43;70.09;101598.72;5065113;28;45629;-62
2021/12/30 09:46:52;;;;;;;;;5.33;5.33;;;;;15.47;70.15;101600.56;5067869;28;45283;-64
2021/12/30 09:49:19;;;;;;;;;8.00;5.00;;;;;15.54;70.16;101604.28;5062997;28;45484;-62
2021/12/30 09:51:45;;;;;;;;;5.67;3.33;;;;;15.55;69.91;101601.63;5090167;28;45337;-62
2021/12/30 09:54:11;;;;;;;;;5.33;1.00;;;;;15.54;69.85;101607.91;5087696;28;45323;-63
2021/12/30 09:56:38;;;;;;;;;8.67;4.00;;;;;15.54;70.02;101599.84;5088794;27;44939;-62
2021/12/30 09:59:04;;;;;;;;;5.33;5.33;;;;;15.62;69.93;101611.66;5075751;28;45723;-63
2021/12/30 10:01:29;;;;;;;;;11.67;4.67;;;;;15.59;69.45;101600.81;5088760;28;45263;-62
2021/12/30 10:03:56;;;;;;;;;7.33;3.33;;;;;15.65;69.35;101605.41;5090683;28;46167;-63
2021/12/30 10:06:21;;;;;;;;;8.33;4.33;;;;;15.32;69.68;101549.13;5089128;28;45032;-62
2021/12/30 10:08:59;;;;;;;;;6.67;4.67;;;;;15.72;69.58;101617.22;5062395;28;45087;-62
2021/12/30 10:11:25;;;;;;;;;8.33;4.67;;;;;15.55;68.97;101593.56;5084147;28;45702;-64
2021/12/30 10:13:55;;;;;;;;;5.00;3.33;;;;;15.70;69.39;101611.78;5081931;28;45237;-63
2021/12/30 10:16:22;;;;;;;;;13.67;11.67;;;;;15.71;69.17;101615.41;5083463;28;45078;-62
2021/12/30 10:18:50;;;;;;;;;15.00;9.33;;;;;15.74;69.74;101611.00;5072311;28;45365;-61
2021/12/30 10:21:27;;;;;;;;;5.67;5.00;;;;;15.75;69.58;101615.47;5065300;28;45432;-64
2021/12/30 10:23:58;;;;;;;;;13.00;8.00;;;;;15.71;69.10;101597.47;5054959;28;46085;-63
2021/12/30 10:26:24;;;;;;;;;7.00;5.33;;;;;15.82;69.20;101613.84;5055171;28;45419;-64
2021/12/30 10:28:54;;;;;;;;;9.00;7.00;;;;;15.86;68.89;101613.03;5054868;28;45551;-64
2021/12/30 10:31:26;;;;;;;;;5.00;5.00;;;;;15.91;68.83;101626.59;5060178;28;45363;-62
2021/12/30 10:33:59;;;;;;;;;9.00;4.33;;;;;15.94;68.98;101641.03;5074445;28;45291;-63
2021/12/30 10:36:31;;;;;;;;;3.67;3.67;;;;;15.95;68.96;101614.97;5075148;28;45440;-64
2021/12/30 10:39:26;;;;;;;;;7.33;6.67;;;;;16.00;68.89;101624.06;5075069;28;45546;-63
2021/12/30 10:42:21;;;;;;;;;11.00;6.00;;;;;16.06;68.73;101629.56;5074835;28;45406;-62
2021/12/30 10:44:48;;;;;;;;;7.00;4.00;;;;;16.06;68.40;101620.59;5071830;28;46660;-63
2021/12/30 10:47:15;;;;;;;;;6.00;5.00;;;;;16.07;68.30;101625.06;5073941;28;45432;-62
2021/12/30 10:49:40;;;;;;;;;6.00;3.00;;;;;16.05;68.41;101613.34;5072834;28;45437;-62
2021/12/30 10:52:06;;;;;;;;;5.33;3.33;;;;;16.06;68.33;101618.78;5045870;28;45447;-63
2021/12/30 10:54:36;;;;;;;;;4.00;4.00;;;;;16.09;68.70;101617.94;5059074;28;45418;-62
2021/12/30 10:57:07;;;;;;;;;6.33;4.00;;;;;16.10;68.08;101615.28;5068400;28;45720;-65
2021/12/30 10:59:36;;;;;;;;;5.67;3.67;;;;;16.08;68.49;101608.94;5075578;28;45327;-63
2021/12/30 11:02:04;;;;;;;;;6.00;4.00;;;;;16.14;68.06;101613.53;5074503;28;45465;-63
2021/12/30 11:04:37;;;;;;;;;5.67;5.33;;;;;16.19;68.59;101610.03;5074911;28;45435;-63
2021/12/30 11:07:04;;;;;;;;;11.33;2.33;;;;;16.28;68.47;101614.66;5074857;28;45292;-63
2021/12/30 11:09:29;;;;;;;;;5.67;3.33;;;;;16.18;67.69;101596.50;5059304;28;45722;-64
2021/12/30 11:12:00;;;;;;;;;1.33;1.33;;;;;16.29;67.80;101612.88;5066306;28;45433;-62
2021/12/30 11:14:30;;;;;;;;;10.33;7.00;;;;;16.28;68.00;101609.25;5066804;28;46162;-62
2021/12/30 11:17:09;;;;;;;;;7.67;6.67;;;;;16.29;68.13;101613.78;5059760;28;45725;-62
2021/12/30 11:19:39;;;;;;;;;11.00;6.67;;;;;16.26;68.38;101612.84;5069356;28;45469;-63
2021/12/30 11:22:09;;;;;;;;;8.00;3.33;;;;;16.17;67.87;101582.13;5074075;28;45427;-63
2021/12/30 11:24:35;;;;;;;;;6.00;6.00;;;;;15.99;67.35;101557.56;5075827;28;45473;-64